createdAt,value
2022-09-10T00:01:35.736Z,70.44
2022-09-10T00:04:04.915Z,70.92
2022-09-10T00:06:35.422Z,71.16
2022-09-10T00:09:03.884Z,71.07
2022-09-10T00:11:32.595Z,71.66
2022-09-10T00:14:01.712Z,72.15
2022-09-10T00:16:30.562Z,72.21
2022-09-10T00:18:59.325Z,72.58
2022-09-10T00:21:28.179Z,71.73
2022-09-10T00:23:56.619Z,72.23
2022-09-10T00:26:33.511Z,71.99
2022-09-10T00:29:01.924Z,72.68
2022-09-10T00:31:32.226Z,73.31
2022-09-10T00:34:02.241Z,73.01
2022-09-10T00:36:33.179Z,72.87
2022-09-10T00:39:04.058Z,73.06
2022-09-10T00:41:33.453Z,72.80
2022-09-10T00:44:03.165Z,72.97
2022-09-10T00:46:50.382Z,73.14
2022-09-10T00:49:24.041Z,73.00
2022-09-10T00:51:53.192Z,73.50
2022-09-10T00:54:24.130Z,72.92
2022-09-10T00:56:54.455Z,73.27
2022-09-10T00:59:26.835Z,73.35
2022-09-10T01:01:56.062Z,72.92
2022-09-10T01:04:24.817Z,72.82
2022-09-10T01:06:53.506Z,72.70
2022-09-10T01:09:23.545Z,72.68
2022-09-10T01:11:58.253Z,73.05
2022-09-10T01:14:45.651Z,73.03
2022-09-10T01:17:23.586Z,73.58
2022-09-10T01:20:07.834Z,73.05
2022-09-10T01:22:51.882Z,73.25
2022-09-10T01:25:21.285Z,73.82
2022-09-10T01:27:54.071Z,73.14
2022-09-10T01:30:30.645Z,73.41
2022-09-10T01:33:20.557Z,73.69
2022-09-10T01:36:00.478Z,73.86
2022-09-10T01:38:35.001Z,73.76
2022-09-10T01:41:05.332Z,73.67
2022-09-10T01:43:38.521Z,73.41
2022-09-10T01:46:19.602Z,74.35
2022-09-10T01:49:08.664Z,74.39
2022-09-10T01:51:53.428Z,73.93
2022-09-10T01:54:40.446Z,74.54
2022-09-10T01:57:12.059Z,74.52
2022-09-10T02:00:00.290Z,74.78
2022-09-10T02:02:37.609Z,74.45
2022-09-10T02:05:07.044Z,74.43
2022-09-10T02:07:36.685Z,74.13
2022-09-10T02:10:06.540Z,74.17
2022-09-10T02:12:40.217Z,73.95
2022-09-10T02:15:34.564Z,74.50
2022-09-10T02:18:35.667Z,74.05
2022-09-10T02:21:04.499Z,74.30
2022-09-10T02:23:39.229Z,74.38
2022-09-10T02:26:08.120Z,74.32
2022-09-10T02:28:37.132Z,74.03
2022-09-10T02:31:05.704Z,73.40
2022-09-10T02:33:34.488Z,73.22
2022-09-10T02:36:03.899Z,73.29
2022-09-10T02:38:33.500Z,73.00
2022-09-10T02:41:02.086Z,72.67
2022-09-10T02:43:30.876Z,72.82
2022-09-10T02:46:04.073Z,72.93
2022-09-10T02:48:32.552Z,74.07
2022-09-10T02:51:00.932Z,74.20
2022-09-10T02:53:31.335Z,74.09
2022-09-10T02:56:01.278Z,74.27
2022-09-10T02:58:33.430Z,74.79
2022-09-10T03:01:09.976Z,75.66
2022-09-10T03:03:39.530Z,75.39
2022-09-10T03:06:08.401Z,75.67
2022-09-10T03:08:36.948Z,75.84
2022-09-10T03:11:06.181Z,75.97
2022-09-10T03:13:35.296Z,75.38
2022-09-10T03:16:04.457Z,75.46
2022-09-10T03:18:35.699Z,75.39
2022-09-10T03:21:15.490Z,75.82
2022-09-10T03:23:45.375Z,75.50
2022-09-10T03:26:14.912Z,75.65
2022-09-10T03:28:44.010Z,76.29
2022-09-10T03:31:17.638Z,75.85
2022-09-10T03:33:49.473Z,75.57
2022-09-10T03:36:18.776Z,75.27
2022-09-10T03:38:49.510Z,75.57
2022-09-10T03:41:18.095Z,75.74
2022-09-10T03:43:46.987Z,75.66
2022-09-10T03:46:16.596Z,75.62
2022-09-10T03:48:46.104Z,75.73
2022-09-10T03:51:16.531Z,75.47
2022-09-10T03:53:45.012Z,75.87
2022-09-10T03:56:13.279Z,76.04
2022-09-10T03:58:41.773Z,75.25
2022-09-10T04:01:11.044Z,75.29
2022-09-10T04:03:42.630Z,75.21
2022-09-10T04:06:12.136Z,75.45
2022-09-10T04:08:43.881Z,75.49
2022-09-10T04:11:15.042Z,75.58
2022-09-10T04:13:44.138Z,76.03
2022-09-10T04:16:13.676Z,76.04
2022-09-10T04:18:42.744Z,76.10
2022-09-10T04:21:11.426Z,76.62
2022-09-10T04:23:42.344Z,76.09
2022-09-10T04:26:12.593Z,75.86
2022-09-10T04:28:41.715Z,75.98
2022-09-10T04:31:10.784Z,75.93
2022-09-10T04:33:40.702Z,76.26
2022-09-10T04:36:09.284Z,76.29
2022-09-10T04:38:42.480Z,76.18
2022-09-10T04:41:15.717Z,76.39
2022-09-10T04:43:45.355Z,76.12
2022-09-10T04:46:14.377Z,75.79
2022-09-10T04:48:44.193Z,76.39
2022-09-10T04:51:18.271Z,75.90
2022-09-10T04:53:53.241Z,76.11
2022-09-10T04:56:24.504Z,76.10
2022-09-10T04:58:52.971Z,75.99
2022-09-10T05:01:21.392Z,75.84
2022-09-10T05:03:53.536Z,76.11
2022-09-10T05:06:23.662Z,75.28
2022-09-10T05:08:52.020Z,75.02
2022-09-10T05:11:21.833Z,74.59
2022-09-10T05:13:50.216Z,74.54
2022-09-10T05:16:22.565Z,74.26
2022-09-10T05:18:51.071Z,74.22
2022-09-10T05:21:19.757Z,74.37
2022-09-10T05:23:48.752Z,73.99
2022-09-10T05:26:17.339Z,73.67
2022-09-10T05:28:45.717Z,73.53
2022-09-10T05:31:17.741Z,73.17
2022-09-10T05:33:46.982Z,71.77
2022-09-10T05:36:15.260Z,70.72
2022-09-10T05:38:46.237Z,69.55
2022-09-10T05:41:16.222Z,68.98
2022-09-10T05:43:48.608Z,68.64
2022-09-10T05:46:17.304Z,68.60
2022-09-10T05:48:49.858Z,68.34
2022-09-10T05:51:20.087Z,67.87
2022-09-10T05:53:50.206Z,68.63
2022-09-10T05:56:21.045Z,68.26
2022-09-10T05:58:50.138Z,68.41
2022-09-10T06:01:19.965Z,67.71
2022-09-10T06:03:51.306Z,67.12
2022-09-10T06:06:20.077Z,66.99
2022-09-10T06:08:56.051Z,66.12
2022-09-10T06:11:38.462Z,64.70
2022-09-10T06:14:07.251Z,63.59
2022-09-10T06:16:36.466Z,62.97
2022-09-10T06:19:04.932Z,62.50
2022-09-10T06:21:35.155Z,62.12
2022-09-10T06:24:03.743Z,61.09
2022-09-10T06:26:35.604Z,59.86
2022-09-10T06:29:08.799Z,59.38
2022-09-10T06:31:39.540Z,59.56
2022-09-10T06:34:08.839Z,59.44
2022-09-10T06:36:37.418Z,59.03
2022-09-10T06:39:07.368Z,59.46
2022-09-10T06:41:49.824Z,58.82
2022-09-10T06:44:36.868Z,57.84
2022-09-10T06:48:06.795Z,56.48
2022-09-10T06:50:12.994Z,56.95
2022-09-10T06:52:43.376Z,55.88
2022-09-10T06:55:13.903Z,55.50
2022-09-10T06:57:47.488Z,56.01
2022-09-10T07:00:18.246Z,54.87
2022-09-10T07:02:52.392Z,53.38
2022-09-10T07:05:20.843Z,53.36
2022-09-10T07:07:49.326Z,53.00
2022-09-10T07:10:18.529Z,53.49
2022-09-10T07:12:46.702Z,54.05
2022-09-10T07:15:15.189Z,53.25
2022-09-10T07:17:43.875Z,53.33
2022-09-10T07:20:13.381Z,51.28
2022-09-10T07:22:47.671Z,50.76
2022-09-10T07:25:17.001Z,51.03
2022-09-10T07:27:54.803Z,52.37
2022-09-10T07:30:24.723Z,51.04
2022-09-10T07:32:53.509Z,51.40
2022-09-10T07:35:26.393Z,51.98
2022-09-10T07:37:55.190Z,50.98
2022-09-10T07:40:24.073Z,50.20
2022-09-10T07:42:52.971Z,50.32
2022-09-10T07:45:21.674Z,50.14
2022-09-10T07:47:50.261Z,49.39
2022-09-10T07:50:19.619Z,50.35
2022-09-10T07:52:52.984Z,50.46
2022-09-10T07:55:23.855Z,48.08
2022-09-10T07:57:52.367Z,48.20
2022-09-10T08:00:20.952Z,46.28
2022-09-10T08:02:52.306Z,47.43
2022-09-10T08:05:22.423Z,44.64
2022-09-10T08:07:52.747Z,44.82
2022-09-10T08:10:21.623Z,42.67
2022-09-10T08:12:50.171Z,43.24
2022-09-10T08:15:18.504Z,43.48
2022-09-10T08:17:47.397Z,42.09
2022-09-10T08:20:16.390Z,42.90
2022-09-10T08:22:45.488Z,43.38
2022-09-10T08:25:15.201Z,43.19
2022-09-10T08:27:43.784Z,42.74
2022-09-10T08:30:12.780Z,43.96
2022-09-10T08:32:42.696Z,41.72
2022-09-10T08:35:11.796Z,41.55
2022-09-10T08:37:40.071Z,40.88
2022-09-10T08:40:12.291Z,39.97
2022-09-10T08:42:51.477Z,40.27
2022-09-10T08:45:27.833Z,37.71
2022-09-10T08:47:57.052Z,37.71
2022-09-10T08:50:35.255Z,38.41
2022-09-10T08:53:19.200Z,39.10
2022-09-10T08:55:49.085Z,36.84
2022-09-10T08:58:25.512Z,36.31
2022-09-10T09:00:59.604Z,35.10
2022-09-10T09:03:32.928Z,36.47
2022-09-10T09:06:03.016Z,35.74
2022-09-10T09:08:48.707Z,35.45
2022-09-10T09:11:20.565Z,35.02
2022-09-10T09:14:01.234Z,33.92
2022-09-10T09:16:30.023Z,32.53
2022-09-10T09:19:24.517Z,33.87
2022-09-10T09:21:55.251Z,32.77
2022-09-10T09:24:44.831Z,33.80
2022-09-10T09:27:17.312Z,34.54
2022-09-10T09:29:51.031Z,32.36
2022-09-10T09:32:21.236Z,31.05
2022-09-10T09:34:52.690Z,31.48
2022-09-10T09:37:24.459Z,30.11
2022-09-10T09:40:15.412Z,31.04
2022-09-10T09:42:45.991Z,30.69
2022-09-10T09:45:25.063Z,30.69
2022-09-10T09:47:55.012Z,30.70
2022-09-10T09:50:23.729Z,30.99
2022-09-10T09:52:55.181Z,31.59
2022-09-10T09:55:24.073Z,32.47
2022-09-10T09:58:12.731Z,34.04
2022-09-10T10:00:41.292Z,32.57
2022-09-10T10:03:20.862Z,31.57
2022-09-10T10:05:49.315Z,30.65
2022-09-10T10:08:30.521Z,29.77
2022-09-10T10:10:59.207Z,30.72
2022-09-10T10:13:37.577Z,30.55
2022-09-10T10:16:15.244Z,30.40
2022-09-10T10:18:44.649Z,30.71
2022-09-10T10:21:16.074Z,29.94
2022-09-10T10:23:45.172Z,29.82
2022-09-10T10:26:22.461Z,29.55
2022-09-10T10:28:52.277Z,29.66
2022-09-10T10:31:20.892Z,29.02
2022-09-10T10:34:18.403Z,28.97
2022-09-10T10:36:52.539Z,28.84
2022-09-10T10:39:21.128Z,29.25
2022-09-10T10:41:49.612Z,29.18
2022-09-10T10:44:38.468Z,28.88
2022-09-10T10:47:25.590Z,30.64
2022-09-10T10:50:03.872Z,28.63
2022-09-10T10:52:41.193Z,27.78
2022-09-10T10:55:09.789Z,26.33
2022-09-10T10:57:58.232Z,26.61
2022-09-10T11:00:26.787Z,29.22
2022-09-10T11:03:05.026Z,27.50
2022-09-10T11:05:39.076Z,26.98
2022-09-10T11:08:27.386Z,26.73
2022-09-10T11:11:53.934Z,26.95
2022-09-10T11:14:57.479Z,27.19
2022-09-10T11:17:40.025Z,27.28
2022-09-10T11:20:29.437Z,27.33
2022-09-10T11:23:05.790Z,26.63
2022-09-10T11:25:45.260Z,26.82
2022-09-10T11:28:16.780Z,26.27
2022-09-10T11:30:48.286Z,26.40
2022-09-10T11:33:33.745Z,27.24
2022-09-10T11:36:16.239Z,28.03
2022-09-10T11:39:00.280Z,27.78
2022-09-10T11:41:30.498Z,28.44
2022-09-10T11:43:58.847Z,28.58
2022-09-10T11:46:32.829Z,29.23
2022-09-10T11:49:03.836Z,29.09
2022-09-10T11:51:37.648Z,28.36
2022-09-10T11:54:11.047Z,28.05
2022-09-10T11:56:54.579Z,28.66
2022-09-10T11:59:30.225Z,29.48
2022-09-10T12:02:03.056Z,29.95
2022-09-10T12:04:43.614Z,29.73
2022-09-10T12:07:32.439Z,30.48
2022-09-10T12:10:14.551Z,31.06
2022-09-10T12:12:44.464Z,30.58
2022-09-10T12:15:18.881Z,30.28
2022-09-10T12:18:02.622Z,29.68
2022-09-10T12:20:38.070Z,30.31
2022-09-10T12:23:06.948Z,29.92
2022-09-10T12:25:35.548Z,30.20
2022-09-10T12:28:08.302Z,30.38
2022-09-10T12:30:36.917Z,30.76
2022-09-10T12:33:17.641Z,31.84
2022-09-10T12:35:47.397Z,32.31
2022-09-10T12:38:34.802Z,32.52
2022-09-10T12:41:14.938Z,32.34
2022-09-10T12:44:03.126Z,32.80
2022-09-10T12:46:32.237Z,33.17
2022-09-10T12:49:20.980Z,33.72
2022-09-10T12:51:52.536Z,34.22
2022-09-10T12:54:24.195Z,34.31
2022-09-10T12:57:04.094Z,34.32
2022-09-10T12:59:40.511Z,34.91
2022-09-10T13:02:27.378Z,34.44
2022-09-10T13:05:07.351Z,34.44
2022-09-10T13:07:37.892Z,34.49
2022-09-10T13:10:15.608Z,34.55
2022-09-10T13:12:47.572Z,34.71
2022-09-10T13:15:20.664Z,34.74
2022-09-10T13:17:49.864Z,35.13
2022-09-10T13:20:23.979Z,35.23
2022-09-10T13:22:58.811Z,35.66
2022-09-10T13:25:43.576Z,35.89
2022-09-10T13:28:30.875Z,35.73
2022-09-10T13:31:19.605Z,35.59
2022-09-10T13:33:52.392Z,35.29
2022-09-10T13:36:30.242Z,34.91
2022-09-10T13:39:21.151Z,34.92
2022-09-10T13:42:09.194Z,34.33
2022-09-10T13:44:37.646Z,33.83
2022-09-10T13:47:11.996Z,34.50
2022-09-10T13:49:47.740Z,34.89
2022-09-10T13:52:17.666Z,34.77
2022-09-10T13:54:55.405Z,34.82
2022-09-10T13:57:52.985Z,34.43
2022-09-10T14:00:26.636Z,35.06
2022-09-10T14:02:56.501Z,35.27
2022-09-10T14:05:30.566Z,35.69
2022-09-10T14:08:02.084Z,35.78
2022-09-10T14:10:31.729Z,36.29
2022-09-10T14:13:00.721Z,36.44
2022-09-10T14:15:36.805Z,36.36
2022-09-10T14:18:05.573Z,36.34
2022-09-10T14:20:35.901Z,36.54
2022-09-10T14:23:05.508Z,37.26
2022-09-10T14:25:35.868Z,37.16
2022-09-10T14:28:16.608Z,36.33
2022-09-10T14:30:46.954Z,35.85
2022-09-10T14:33:22.582Z,35.07
2022-09-10T14:35:52.970Z,35.30
2022-09-10T14:38:41.870Z,35.46
2022-09-10T14:41:25.032Z,36.27
2022-09-10T14:44:12.012Z,36.05
2022-09-10T14:47:00.044Z,36.63
2022-09-10T14:49:29.973Z,36.76
2022-09-10T14:51:59.218Z,37.08
2022-09-10T14:54:28.475Z,37.50
2022-09-10T14:56:58.404Z,37.81
2022-09-10T14:59:26.770Z,37.94
2022-09-10T15:01:55.516Z,38.29
2022-09-10T15:04:27.067Z,38.37
2022-09-10T15:06:56.314Z,38.69
2022-09-10T15:09:25.309Z,38.71
2022-09-10T15:11:59.628Z,38.54
2022-09-10T15:14:28.072Z,38.86
2022-09-10T15:16:56.475Z,38.49
2022-09-10T15:19:25.252Z,38.69
2022-09-10T15:21:53.764Z,38.33
2022-09-10T15:24:23.167Z,37.86
2022-09-10T15:26:51.656Z,37.51
2022-09-10T15:29:20.442Z,36.95
2022-09-10T15:31:48.821Z,35.89
2022-09-10T15:34:17.304Z,35.28
2022-09-10T15:36:46.907Z,35.60
2022-09-10T15:39:15.612Z,35.75
2022-09-10T15:41:45.221Z,35.56
2022-09-10T15:44:13.898Z,35.38
2022-09-10T15:46:45.578Z,35.98
2022-09-10T15:49:14.037Z,36.74
2022-09-10T15:51:42.315Z,37.55
2022-09-10T15:54:11.617Z,36.97
2022-09-10T15:56:40.816Z,38.14
2022-09-10T15:59:09.403Z,38.53
2022-09-10T16:01:38.818Z,38.96
2022-09-10T16:04:07.803Z,40.28
2022-09-10T16:06:38.023Z,40.92
2022-09-10T16:09:11.732Z,41.72
2022-09-10T16:11:41.436Z,42.31
2022-09-10T16:14:13.106Z,42.25
2022-09-10T16:16:41.898Z,42.65
2022-09-10T16:19:12.110Z,44.21
2022-09-10T16:21:40.696Z,45.21
2022-09-10T16:24:09.904Z,45.97
2022-09-10T16:26:39.305Z,44.22
2022-09-10T16:29:12.390Z,44.94
2022-09-10T16:31:41.157Z,46.16
2022-09-10T16:34:11.713Z,45.82
2022-09-10T16:36:40.297Z,45.84
2022-09-10T16:39:12.586Z,47.87
2022-09-10T16:41:41.667Z,49.06
2022-09-10T16:44:11.433Z,51.60
2022-09-10T16:46:40.001Z,54.05
2022-09-10T16:49:13.116Z,57.63
2022-09-10T16:51:43.188Z,59.88
2022-09-10T16:54:11.965Z,61.79
2022-09-10T16:56:42.579Z,62.22
2022-09-10T16:59:15.084Z,63.49
2022-09-10T17:01:44.742Z,64.71
2022-09-10T17:04:18.525Z,66.44
2022-09-10T17:06:47.689Z,68.77
2022-09-10T17:09:16.377Z,68.70
2022-09-10T17:11:44.761Z,68.42
2022-09-10T17:14:13.141Z,68.51
2022-09-10T17:16:42.215Z,68.83
2022-09-10T17:19:11.948Z,68.36
2022-09-10T17:21:41.736Z,68.29
2022-09-10T17:24:11.267Z,70.05
2022-09-10T17:26:40.057Z,69.39
2022-09-10T17:29:10.485Z,71.75
2022-09-10T17:31:39.818Z,70.05
2022-09-10T17:34:08.291Z,70.42
2022-09-10T17:36:37.264Z,71.45
2022-09-10T17:39:05.845Z,69.53
2022-09-10T17:41:34.125Z,70.70
2022-09-10T17:44:02.853Z,69.31
2022-09-10T17:46:31.634Z,70.21
2022-09-10T17:49:02.748Z,71.12
2022-09-10T17:51:32.356Z,71.63
2022-09-10T17:54:02.833Z,70.90
2022-09-10T17:56:31.688Z,71.26
2022-09-10T17:59:02.007Z,71.29
2022-09-10T18:01:34.445Z,71.01
2022-09-10T18:04:04.580Z,71.59
2022-09-10T18:06:35.505Z,75.41
2022-09-10T18:09:04.536Z,72.78
2022-09-10T18:11:34.964Z,72.98
2022-09-10T18:14:04.060Z,72.20
2022-09-10T18:16:33.258Z,72.24
2022-09-10T18:19:03.479Z,72.90
2022-09-10T18:21:33.183Z,73.54
2022-09-10T18:24:06.898Z,72.57
2022-09-10T18:26:39.989Z,72.33
2022-09-10T18:29:10.724Z,71.97
2022-09-10T18:31:39.908Z,71.53
2022-09-10T18:34:09.689Z,70.55
2022-09-10T18:36:38.323Z,70.48
2022-09-10T18:39:07.194Z,70.23
2022-09-10T18:41:39.078Z,69.77
2022-09-10T18:44:09.810Z,69.78
2022-09-10T18:46:38.394Z,69.98
2022-09-10T18:49:06.779Z,69.99
2022-09-10T18:51:35.976Z,69.34
2022-09-10T18:54:05.613Z,71.41
2022-09-10T18:56:33.856Z,72.63
2022-09-10T18:59:07.361Z,72.04
2022-09-10T19:01:37.334Z,73.81
2022-09-10T19:04:07.402Z,75.42
2022-09-10T19:06:37.317Z,76.22
2022-09-10T19:09:07.334Z,76.84
2022-09-10T19:11:37.455Z,77.74
2022-09-10T19:14:11.671Z,81.14
2022-09-10T19:16:41.587Z,81.00
2022-09-10T19:19:18.875Z,81.12
2022-09-10T19:21:48.282Z,80.85
2022-09-10T19:24:17.281Z,81.12
2022-09-10T19:26:46.371Z,81.25
2022-09-10T19:29:18.744Z,81.84
2022-09-10T19:31:47.945Z,82.50
2022-09-10T19:34:17.645Z,83.93
2022-09-10T19:36:46.885Z,85.83
2022-09-10T19:39:16.543Z,85.31
2022-09-10T19:41:45.970Z,85.56
2022-09-10T19:44:14.964Z,85.92
2022-09-10T19:46:44.445Z,85.92
2022-09-10T19:49:13.159Z,85.70
2022-09-10T19:51:42.195Z,85.04
2022-09-10T19:54:12.293Z,84.44
2022-09-10T19:56:42.555Z,84.16
2022-09-10T19:59:10.986Z,83.78
2022-09-10T20:01:40.613Z,84.04
2022-09-10T20:04:10.606Z,84.20
2022-09-10T20:06:39.192Z,84.47
2022-09-10T20:09:10.153Z,84.61
2022-09-10T20:11:39.024Z,84.78
2022-09-10T20:14:11.597Z,84.69
2022-09-10T20:16:42.724Z,84.63
2022-09-10T20:19:13.409Z,84.87
2022-09-10T20:21:42.569Z,85.58
2022-09-10T20:24:11.242Z,85.82
2022-09-10T20:26:44.152Z,86.46
2022-09-10T20:29:19.510Z,87.11
2022-09-10T20:31:48.785Z,87.42
2022-09-10T20:34:19.568Z,87.64
2022-09-10T20:36:49.214Z,88.00
2022-09-10T20:39:20.081Z,88.02
2022-09-10T20:41:48.494Z,88.29
2022-09-10T20:44:17.840Z,88.57
2022-09-10T20:46:46.451Z,88.36
2022-09-10T20:49:16.164Z,88.45
2022-09-10T20:51:44.843Z,88.48
2022-09-10T20:54:14.563Z,88.61
2022-09-10T20:56:42.929Z,89.40
2022-09-10T20:59:15.903Z,89.58
2022-09-10T21:01:46.531Z,89.24
2022-09-10T21:04:15.252Z,89.68
2022-09-10T21:06:43.731Z,89.74
2022-09-10T21:09:12.931Z,90.32
2022-09-10T21:11:41.678Z,90.63
2022-09-10T21:14:11.817Z,90.59
2022-09-10T21:16:41.656Z,91.16
2022-09-10T21:19:14.320Z,91.16
2022-09-10T21:21:43.431Z,91.34
2022-09-10T21:24:13.551Z,91.61
2022-09-10T21:26:43.697Z,91.26
2022-09-10T21:29:13.588Z,91.99
2022-09-10T21:31:42.381Z,91.74
2022-09-10T21:34:11.475Z,91.57
2022-09-10T21:36:41.291Z,91.24
2022-09-10T21:39:14.666Z,91.21
2022-09-10T21:41:50.045Z,91.22
2022-09-10T21:44:20.154Z,91.82
2022-09-10T21:46:49.801Z,91.48
2022-09-10T21:49:18.858Z,90.93
2022-09-10T21:51:47.181Z,90.99
2022-09-10T21:54:21.135Z,91.26
2022-09-10T21:56:50.644Z,91.08
2022-09-10T21:59:20.676Z,91.05
2022-09-10T22:01:49.687Z,91.36
2022-09-10T22:04:22.804Z,91.07
2022-09-10T22:06:52.160Z,90.67
2022-09-10T22:09:21.048Z,90.90
2022-09-10T22:11:51.583Z,91.06
2022-09-10T22:14:21.765Z,92.16
2022-09-10T22:16:50.198Z,92.51
2022-09-10T22:19:20.135Z,93.13
2022-09-10T22:21:49.179Z,92.88
2022-09-10T22:24:20.447Z,93.89
2022-09-10T22:26:48.752Z,93.85
2022-09-10T22:29:18.415Z,94.05
2022-09-10T22:31:47.224Z,94.78
2022-09-10T22:34:16.216Z,94.64
2022-09-10T22:36:45.467Z,95.00
2022-09-10T22:39:15.138Z,95.01
2022-09-10T22:41:44.124Z,95.06
2022-09-10T22:44:13.022Z,95.05
2022-09-10T22:46:41.475Z,95.28
2022-09-10T22:49:10.288Z,94.97
2022-09-10T22:51:41.331Z,94.97
2022-09-10T22:54:10.890Z,95.14
2022-09-10T22:56:40.037Z,95.66
2022-09-10T22:59:11.899Z,96.39
2022-09-10T23:01:40.735Z,96.25
2022-09-10T23:04:10.194Z,96.24
2022-09-10T23:06:38.812Z,96.62
2022-09-10T23:09:09.210Z,97.25
2022-09-10T23:11:38.768Z,97.53
2022-09-10T23:14:09.550Z,97.90
2022-09-10T23:16:39.160Z,97.99
2022-09-10T23:19:09.787Z,97.73
2022-09-10T23:21:40.008Z,97.48
2022-09-10T23:24:08.399Z,97.79
2022-09-10T23:26:36.878Z,98.02
2022-09-10T23:29:05.772Z,98.36
2022-09-10T23:31:36.167Z,98.15
2022-09-10T23:34:05.790Z,98.70
2022-09-10T23:36:35.492Z,98.94
2022-09-10T23:39:08.410Z,99.55
2022-09-10T23:41:37.212Z,99.88
2022-09-10T23:44:05.769Z,99.98
2022-09-10T23:46:34.802Z,99.44
2022-09-10T23:49:04.079Z,99.78
2022-09-10T23:51:32.633Z,99.58
2022-09-10T23:54:01.141Z,99.86
2022-09-10T23:56:29.626Z,99.97
2022-09-10T23:59:00.872Z,99.95
